Latest Coastal Weather Observations for Coffs Harbour Airport

IDN60701

Issued at 7:21 pm EDT Thursday 21 February 2019 (issued every 10 minutes, with the page automatically refreshed every 10 minutes)

About coastal observations | Map of coastal stations | Coastal observations for NSW | Marine services | Other Formats
Station Details ID: 059151 Name: COFFS HARBOUR AIRPORT Lat: -30.32 Lon: 153.12 Height: 3.5 m
Data from the previous 72 hours. | See also: Recent months at Coffs Harbour Airport
Date/Time
EDT
Wind Sea
Height
m
Swell Vis
km
Cloud Weather Temp
°C
Press
hPa
Rain since
9am
mm
Dir  Spd
kts
Gust
kts
Height
m
Period
s
Dir
21/07:00pm SSE 12 16 - - - - 10 Partly cloudy - 24.1 1012.0 0.0
21/06:30pm SSE 18 22 - - - - 10 Partly cloudy - 24.5 1011.7 0.0
21/06:17pm S 16 26 - - - - 10 Partly cloudy - 24.7 1011.6 0.0
21/06:00pm S 13 17 - - - - 10 Partly cloudy - 25.5 1011.3 0.0
21/05:30pm S 15 20 - - - - 10 Partly cloudy - 26.0 1011.2 0.0
21/05:00pm S 15 20 - - - - 10 Partly cloudy - 26.9 1010.8 0.0
21/04:30pm S 13 16 - - - - 10 Partly cloudy - 27.1 1010.7 0.0
21/04:00pm S 13 16 - - - - 10 - - 27.0 1010.8 0.0
21/03:30pm S 14 18 - - - - 10 - - 28.0 1011.0 0.0
21/03:00pm S 14 18 - - - - 10 Mostly clear - 28.0 1011.4 0.0
21/02:30pm S 15 19 - - - - 10 Partly cloudy - 27.8 1011.7 0.0
21/02:00pm S 15 18 - - - - 10 - - 28.3 1011.6 0.0
21/01:30pm SSW 13 16 - - - - 10 - - 28.3 1011.5 0.0
21/01:00pm S 13 17 - - - - 10 - - 28.2 1011.6 0.0
21/12:30pm SSW 12 16 - - - - 10 Partly cloudy - 28.3 1012.0 0.0
21/12:00pm SSW 11 15 - - - - 10 Cloudy - 27.1 1012.2 0.0
21/11:30am SSW 13 17 - - - - 10 Partly cloudy - 27.1 1012.3 0.0
21/11:00am SW 11 14 - - - - 10 Partly cloudy - 25.9 1012.3 0.0
21/10:49am SW 10 14 - - - - 10 Partly cloudy - 24.9 1012.3 0.0
21/10:38am SW 10 14 - - - - 10 Partly cloudy - 24.8 1012.2 0.0
21/10:30am SW 11 14 - - - - 10 Partly cloudy - 25.0 1012.2 0.0
21/10:00am SW 11 14 - - - - 10 Partly cloudy - 23.9 1012.0 0.0
21/09:30am SW 11 14 - - - - 10 Partly cloudy - 24.1 1011.8 0.0
21/09:00am SW 8 12 - - - - 10 Cloudy - 23.3 1011.5 6.8
21/08:30am WSW 8 11 - - - - 10 Partly cloudy - 22.6 1011.2 6.8
21/08:00am SW 7 9 - - - - 10 Partly cloudy - 22.3 1010.8 6.8
21/07:30am WSW 6 9 - - - - 10 Partly cloudy - 21.9 1010.5 6.8
21/07:05am WSW 5 7 - - - - 9 Cloudy - 21.7 1010.3 6.6
21/07:00am WSW 6 9 - - - - 8 Partly cloudy - 21.7 1010.2 6.6
21/06:52am W 6 9 - - - - 6 Partly cloudy - 21.6 1010.2 6.6
21/06:30am WSW 7 9 - - - - 5 Partly cloudy - 21.6 1010.0 5.6
21/06:28am WSW 8 11 - - - - 6 Partly cloudy - 21.6 1010.0 5.6
21/06:00am SW 9 11 - - - - 4 Cloudy Showers 21.5 1009.6 4.8
21/05:31am SW 7 9 - - - - 4 Partly cloudy - 21.8 1009.3 3.8
21/05:30am SW 7 9 - - - - 4 Partly cloudy - 21.8 1009.3 3.8
21/05:20am SSW 7 8 - - - - 3 Partly cloudy - 21.9 1009.4 3.2
21/05:17am SSW 7 10 - - - - 3 Partly cloudy - 22.0 1009.3 2.8
21/05:09am SSW 9 10 - - - - 6 Partly cloudy - 22.1 1009.2 2.2
21/05:06am SSW 8 10 - - - - 10 Partly cloudy - 22.3 1009.2 1.8
21/05:00am SW 7 9 - - - - 10 Partly cloudy - 22.3 1009.1 1.8
21/04:30am SW 8 10 - - - - 10 Partly cloudy - 22.2 1009.0 1.8
21/04:00am SW 7 10 - - - - 10 Partly cloudy - 22.1 1008.9 1.8
21/03:30am WSW 6 8 - - - - 10 Partly cloudy - 22.0 1008.9 1.8
21/03:00am SW 7 8 - - - - 10 Mostly cloudy Recent precip. 22.0 1009.0 1.8
21/02:30am WSW 6 9 - - - - 10 Partly cloudy - 21.9 1009.1 1.8
21/02:00am WSW 6 7 - - - - 10 Partly cloudy - 22.2 1009.4 1.6
21/01:30am WSW 7 10 - - - - 10 Partly cloudy - 22.4 1009.7 1.6
21/01:00am SW 8 9 - - - - 10 Partly cloudy - 22.6 1010.0 1.6
21/12:30am WSW 7 10 - - - - 10 Partly cloudy - 22.7 1010.3 1.6
21/12:00am SW 7 8 - - - - 10 Cloudy - 22.7 1010.6 1.6
 
Date/Time
EDT
Wind Sea
Height
m
Swell Vis
km
Cloud Weather Temp
°C
Press
hPa
Rain since
9am
mm
Dir  Spd
kts
Gust
kts
Height
m
Period
s
Dir
20/11:30pm WSW 4 5 - - - - 10 - - 22.8 1010.1 1.6
20/11:00pm N 6 8 - - - - 10 - - 23.3 1010.2 1.6
20/10:30pm NNE 9 12 - - - - 10 Partly cloudy - 23.3 1010.1 1.6
20/10:00pm WSW 9 12 - - - - 10 Partly cloudy - 23.3 1011.1 1.0
20/09:30pm WSW 5 6 - - - - 10 Partly cloudy - 23.8 1010.8 0.4
20/09:19pm SSW 3 6 - - - - 10 Partly cloudy - 24.0 1010.7 0.4
20/09:05pm NW 4 5 - - - - 10 Partly cloudy - 24.4 1010.4 0.2
20/09:00pm N 3 5 - - - - 10 Mostly cloudy Thunderstorm 24.5 1010.4 0.2
20/08:43pm SE 5 6 - - - - 10 Partly cloudy - 25.2 1009.6 0.0
20/08:30pm SE 6 8 - - - - 10 Partly cloudy - 25.1 1009.5 0.0
20/08:29pm SE 6 8 - - - - 10 Partly cloudy - 25.1 1009.6 0.0
20/08:00pm SSE 8 10 - - - - 9 Partly cloudy - 25.2 1009.7 0.0
20/07:30pm SSW 5 7 - - - - 10 Partly cloudy - 24.8 1009.4 0.0
20/07:00pm ESE 2 4 - - - - 10 Partly cloudy - 25.7 1008.3 0.0
20/06:30pm E 7 8 - - - - 10 Partly cloudy - 26.2 1007.4 0.0
20/06:00pm ENE 7 9 - - - - 10 Mostly cloudy Rain 26.0 1007.2 0.0
20/05:30pm E 7 9 - - - - 10 Partly cloudy - 26.3 1007.4 0.0
20/05:00pm E 8 12 - - - - 10 - - 26.6 1006.7 0.0
20/04:30pm ENE 9 12 - - - - 10 - - 27.1 1006.7 0.0
20/04:00pm E 11 15 - - - - 10 - - 28.0 1006.7 0.0
20/03:30pm E 12 14 - - - - 10 - - 28.2 1007.0 0.0
20/03:00pm E 12 15 - - - - 10 - - 28.2 1007.6 0.0
20/02:30pm E 11 14 - - - - 10 - - 28.1 1008.0 0.0
20/02:00pm E 10 13 - - - - 10 - - 28.3 1008.4 0.0
20/01:30pm E 9 13 - - - - 10 - - 28.1 1008.8 0.0
20/01:00pm ESE 8 10 - - - - 10 - - 27.6 1009.0 0.0
20/12:30pm ESE 9 12 - - - - 10 - - 27.6 1009.4 0.0
20/12:00pm SE 8 10 - - - - 10 - - 27.2 1009.8 0.0
20/11:30am SE 9 10 - - - - 10 - - 27.5 1010.2 0.0
20/11:00am SSE 6 8 - - - - 10 - - 27.0 1010.5 0.0
20/10:30am SE 7 9 - - - - 10 - - 26.8 1010.5 0.0
20/10:00am SSE 8 10 - - - - 10 - - 26.4 1010.6 0.0
20/09:30am SSE 6 9 - - - - 10 - - 26.5 1010.5 0.0
20/09:00am SSE 7 9 - - - - 10 Mostly clear - 26.2 1010.4 0.0
20/08:30am SW 6 8 - - - - 10 Partly cloudy - 25.2 1010.4 0.0
20/08:00am W 4 6 - - - - 10 Partly cloudy - 23.8 1010.3 0.0
20/07:30am WNW 2 4 - - - - 10 Cloudy - 22.8 1010.0 0.0
20/07:00am WNW 5 5 - - - - 10 Partly cloudy - 22.1 1009.8 0.0
20/06:47am WSW 1 4 - - - - 10 Partly cloudy - 21.7 1009.6 0.0
20/06:33am CALM 0 0 - - - - 6 Partly cloudy - 21.0 1009.4 0.0
20/06:30am CALM 0 0 - - - - 7 Partly cloudy - 21.0 1009.3 0.0
20/06:20am CALM 0 0 - - - - 9 Partly cloudy - 21.4 1009.0 0.0
20/06:00am CALM 0 0 - - - - 3 - - 20.9 1009.0 0.0
20/05:30am CALM 0 0 - - - - 6 - - 21.5 1009.0 0.0
20/05:18am CALM 0 0 - - - - 5 - - 21.3 1008.8 0.0
20/05:16am CALM 0 0 - - - - 8 - - 21.5 1008.8 0.0
20/05:05am CALM 0 0 - - - - 6 - - 21.8 1008.7 0.0
20/05:00am CALM 0 0 - - - - 7 - - 21.9 1008.7 0.0
20/04:30am CALM 0 0 - - - - 10 - - 22.3 1008.7 0.0
20/04:00am CALM 0 0 - - - - 10 - - 23.3 1008.6 0.0
20/03:30am WSW 5 6 - - - - 10 Partly cloudy - 23.7 1008.7 0.0
20/03:00am SW 7 9 - - - - 10 Cloudy - 23.8 1008.8 0.0
20/02:30am WSW 3 6 - - - - 10 Cloudy - 23.8 1008.9 0.0
20/02:00am SSW 4 5 - - - - 10 Cloudy - 24.0 1009.0 0.0
20/01:30am SSW 5 7 - - - - 10 Partly cloudy - 23.9 1009.3 0.0
20/01:25am SSW 5 6 - - - - 10 Partly cloudy - 24.0 1009.4 0.0
20/01:10am S 8 10 - - - - 6 Partly cloudy - 24.2 1009.5 0.0
20/01:00am S 9 11 - - - - 7 Partly cloudy - 24.2 1009.7 0.0
20/12:30am S 9 12 - - - - 8 - - 24.3 1009.6 0.0
20/12:00am SSE 7 8 - - - - 7 Cloudy Thunderstorm 24.3 1009.6 0.0
 
Date/Time
EDT
Wind Sea
Height
m
Swell Vis
km
Cloud Weather Temp
°C
Press
hPa
Rain since
9am
mm
Dir  Spd
kts
Gust
kts
Height
m
Period
s
Dir
19/11:30pm W 2 5 - - - - 10 Partly cloudy - 24.3 1009.4 0.0
19/11:00pm W 6 9 - - - - 10 Partly cloudy - 24.3 1009.0 0.0
19/10:30pm NNE 8 11 - - - - 10 - - 25.1 1008.2 0.0
19/10:00pm NNE 10 13 - - - - 10 - - 25.2 1007.7 0.0
19/09:30pm NNE 9 11 - - - - 10 - - 25.1 1007.4 0.0
19/09:00pm NNE 11 15 - - - - 10 - - 25.2 1006.9 0.0
19/08:30pm NNE 11 15 - - - - 10 - - 25.3 1006.3 0.0
19/08:00pm NNE 11 14 - - - - 10 - - 25.6 1006.1 0.0
19/07:30pm NNE 13 17 - - - - 10 - - 25.8 1005.6 0.0
19/07:00pm NNE 13 18 - - - - 10 - - 25.9 1005.3 0.0
19/06:30pm NNE 17 22 - - - - 10 - - 26.4 1005.0 0.0
19/06:00pm NNE 18 23 - - - - 10 - - 27.1 1004.8 0.0
19/05:30pm NNE 19 25 - - - - 10 - - 26.9 1004.7 0.0
19/05:00pm NNE 18 25 - - - - 10 - - 27.3 1004.6 0.0
19/04:30pm NE 19 25 - - - - 10 - - 27.5 1004.6 0.0
19/04:00pm NE 20 27 - - - - 10 - - 27.8 1004.6 0.0
19/03:30pm NNE 19 27 - - - - 10 - - 28.6 1004.8 0.0
19/03:00pm NE 18 23 - - - - 10 - - 28.3 1005.2 0.0
19/02:30pm NE 20 27 - - - - 10 - - 27.6 1005.7 0.0
19/02:00pm NE 19 25 - - - - 10 - - 27.7 1006.2 0.0
19/01:30pm NE 20 26 - - - - 10 - - 28.2 1006.3 0.0
19/01:00pm NE 18 24 - - - - 10 - - 27.9 1006.7 0.0
19/12:30pm NNE 17 22 - - - - 10 - - 28.3 1007.1 0.0
19/12:03pm NE 16 26 - - - - 10 - - 27.8 1007.7 0.0
19/12:00pm NE 16 21 - - - - 10 - - 28.3 1007.7 0.0
19/11:30am NE 16 20 - - - - 10 - - 27.9 1007.8 0.0
19/11:00am NE 15 20 - - - - 10 - - 28.3 1008.0 0.0
19/10:30am N 8 12 - - - - 10 - - 28.7 1008.3 0.0
19/10:00am N 10 15 - - - - 10 - - 27.7 1008.3 0.0
19/09:30am N 12 17 - - - - 10 - - 27.0 1008.1 0.0
19/09:00am N 10 14 - - - - 10 - - 26.1 1008.4 0.0
19/08:30am N 11 17 - - - - 10 - - 25.5 1008.5 0.0
19/08:00am NNE 12 16 - - - - 10 - - 24.3 1008.2 0.0
19/07:30am NNE 10 14 - - - - 10 - - 23.4 1008.1 0.0
19/07:00am NNE 11 15 - - - - 10 - - 22.5 1008.1 0.0
19/06:30am NNE 11 14 - - - - 10 - - 22.2 1007.8 0.0
19/06:00am NNE 9 13 - - - - 10 - - 21.9 1007.6 0.0
19/05:30am NNE 7 8 - - - - 10 - - 22.1 1007.7 0.0
19/05:00am N 6 8 - - - - 10 - - 22.1 1007.8 0.0
19/04:30am N 7 8 - - - - 10 - - 22.1 1008.0 0.0
19/04:00am N 5 7 - - - - 10 - - 22.3 1008.4 0.0
19/03:30am N 9 12 - - - - 10 - - 23.2 1008.8 0.0
19/03:00am N 10 15 - - - - 10 - - 23.3 1009.1 0.0
19/02:30am N 8 11 - - - - 10 - - 23.2 1009.3 0.0
19/02:00am N 7 10 - - - - 10 - - 22.5 1009.6 0.0
19/01:30am NNW 7 9 - - - - 10 - - 23.1 1010.0 0.0
19/01:00am NNW 8 11 - - - - 10 - - 22.7 1010.4 0.0
19/12:30am NNW 7 10 - - - - 10 - - 22.9 1010.7 0.0
19/12:00am NNW 8 10 - - - - 10 - - 23.0 1010.9 0.0
 
Date/Time
EDT
Wind Sea
Height
m
Swell Vis
km
Cloud Weather Temp
°C
Press
hPa
Rain since
9am
mm
Dir  Spd
kts
Gust
kts
Height
m
Period
s
Dir
18/11:30pm NNW 8 12 - - - - 10 - - 23.2 1011.0 0.0
18/11:00pm NNW 9 15 - - - - 10 - - 23.2 1011.1 0.0
18/10:30pm N 9 12 - - - - 10 - - 23.7 1011.2 0.0
18/10:00pm N 7 10 - - - - 10 - - 23.9 1011.2 0.0
18/09:30pm N 9 11 - - - - 10 - - 24.2 1011.0 0.0
18/09:00pm N 9 12 - - - - 10 - - 24.4 1010.7 0.0
18/08:30pm NNE 12 15 - - - - 10 - - 24.6 1010.4 0.0
18/08:00pm NNE 11 17 - - - - 10 - - 24.8 1010.2 0.0
18/07:30pm NNE 12 17 - - - - 10 - - 25.1 1009.7 0.0

Other formats

Comma delimited format used in spreadsheet applications
http://www.bom.gov.au/fwo/IDN60701/IDN60701.95729.axf

JavaScript Object Notation format (JSON) in row-major order
http://www.bom.gov.au/fwo/IDN60701/IDN60701.95729.json

Data quality

Most of these data are generated automatically and are frequently updated. Quality checks on data are not normally performed. It is possible for incorrect values to appear. Refer to information at About Latest Weather Observations and please check the disclaimer before using these data.